Time;durP1;ratioP1;P1;durP2;ratioP2;P2;SDS_P1;SDS_P2;PMS_P1;PMS_P2;Temp;Humidity;BMP_temperature;BMP_pressure;BME280_temperature;BME280_humidity;BME280_pressure;Samples;Min_cycle;Max_cycle;Signal;HPM_P1;HPM_P2
2022/06/09 00:01:46;;;;;;;7.15;3.55;;;;;;;24.66;44.33;100291.97;5079208;27;96884;-80
2022/06/09 00:04:16;;;;;;;5.88;3.20;;;;;;;24.72;43.88;100284.09;5079690;27;96877;-80
2022/06/09 00:06:46;;;;;;;3.65;2.95;;;;;;;24.63;43.69;100287.72;5076702;27;97867;-80
2022/06/09 00:09:14;;;;;;;3.88;2.47;;;;;;;24.72;43.00;100296.75;5074325;27;99677;-79
2022/06/09 00:11:44;;;;;;;3.70;2.75;;;;;;;24.52;43.63;100313.13;5071049;27;97287;-82
2022/06/09 00:14:12;;;;;;;3.22;2.58;;;;;;;24.51;42.46;100306.03;5065158;27;97210;-81
2022/06/09 00:16:38;;;;;;;4.35;2.35;;;;;;;24.79;42.16;100304.09;5067575;27;97693;-82
2022/06/09 00:19:06;;;;;;;2.25;2.05;;;;;;;24.43;42.37;100311.34;5070617;27;98839;-81
2022/06/09 00:21:32;;;;;;;3.15;2.22;;;;;;;24.75;41.88;100299.13;5073967;27;96808;-81
2022/06/09 00:23:59;;;;;;;3.38;1.95;;;;;;;24.71;41.78;100304.00;5074256;27;96783;-82
2022/06/09 00:26:25;;;;;;;2.38;1.95;;;;;;;24.46;43.24;100313.75;5077106;27;99204;-81
2022/06/09 00:28:51;;;;;;;2.10;1.90;;;;;;;24.73;42.74;100315.50;5074680;27;99157;-82
2022/06/09 00:31:20;;;;;;;5.13;1.80;;;;;;;24.61;43.39;100322.97;5081148;27;96662;-81
2022/06/09 00:33:46;;;;;;;2.97;1.70;;;;;;;25.04;42.50;100317.81;5078843;27;96834;-81
2022/06/09 00:36:13;;;;;;;2.80;1.95;;;;;;;24.77;43.49;100327.69;5080590;27;98473;-80
2022/06/09 00:38:40;;;;;;;4.32;1.63;;;;;;;24.86;43.18;100321.38;5068819;27;97780;-81
2022/06/09 00:41:06;;;;;;;9.48;2.00;;;;;;;24.66;44.06;100327.09;5073179;27;96802;-80
2022/06/09 00:43:34;;;;;;;1.73;1.60;;;;;;;24.76;43.83;100328.69;5072903;27;98819;-81
2022/06/09 00:46:06;;;;;;;1.88;1.63;;;;;;;24.83;43.43;100318.97;5073922;27;98108;-84
2022/06/09 00:48:41;;;;;;;3.17;2.10;;;;;;;24.29;44.65;100308.31;5080999;27;100264;-81
2022/06/09 00:51:20;;;;;;;2.20;2.03;;;;;;;23.94;45.69;100303.69;5075476;27;98568;-82
2022/06/09 00:53:50;;;;;;;1.95;1.85;;;;;;;24.04;45.01;100301.75;5077673;27;97395;-79
2022/06/09 00:56:17;;;;;;;3.05;1.77;;;;;;;24.03;45.33;100317.09;5077712;27;98895;-80
2022/06/09 00:58:47;;;;;;;2.45;1.70;;;;;;;24.09;45.15;100310.28;5073078;27;97515;-80
2022/06/09 01:01:18;;;;;;;2.60;1.80;;;;;;;24.19;45.01;100316.50;5077405;27;97019;-77
2022/06/09 01:03:50;;;;;;;2.67;1.90;;;;;;;23.96;45.58;100310.59;5075009;27;96826;-78
2022/06/09 01:06:22;;;;;;;5.85;1.95;;;;;;;24.04;45.17;100324.22;5075579;27;97832;-78
2022/06/09 01:08:54;;;;;;;2.58;2.30;;;;;;;23.70;46.40;100320.41;5078099;27;101428;-79
2022/06/09 01:11:21;;;;;;;3.72;2.20;;;;;;;23.40;46.68;100324.19;5076329;27;96955;-79
2022/06/09 01:13:47;;;;;;;3.25;2.13;;;;;;;23.12;47.36;100317.84;5073998;27;97890;-79
2022/06/09 01:16:22;;;;;;;3.42;2.05;;;;;;;23.55;46.58;100324.59;5074439;27;98977;-78
2022/06/09 01:19:19;;;;;;;5.10;2.00;;;;;;;23.71;46.12;100332.88;5076289;27;102634;-80
2022/06/09 01:22:33;;;;;;;2.08;1.95;;;;;;;23.65;45.98;100328.09;5074772;27;97693;-79
2022/06/09 01:25:38;;;;;;;4.63;2.30;;;;;;;23.45;46.46;100332.66;5024229;27;97161;-79
2022/06/09 01:28:27;;;;;;;4.63;1.90;;;;;;;23.38;46.04;100329.72;5067205;27;98027;-80
2022/06/09 01:30:59;;;;;;;2.97;2.03;;;;;;;23.08;47.09;100338.00;5067758;27;97963;-78
2022/06/09 01:33:35;;;;;;;3.25;1.75;;;;;;;23.03;46.82;100326.81;5074107;27;97937;-78
2022/06/09 01:36:09;;;;;;;3.10;2.63;;;;;;;23.47;45.97;100329.84;5075044;27;96957;-79
2022/06/09 01:38:46;;;;;;;2.63;1.88;;;;;;;23.49;46.02;100327.88;5070320;27;99243;-78
2022/06/09 01:41:13;;;;;;;4.30;1.70;;;;;;;23.67;44.85;100318.00;5074539;27;100102;-78
2022/06/09 01:43:40;;;;;;;2.08;1.67;;;;;;;23.16;46.03;100321.97;5070922;27;96838;-78
2022/06/09 01:46:12;;;;;;;3.40;1.80;;;;;;;23.15;45.88;100322.13;5074643;27;96859;-78
2022/06/09 01:48:41;;;;;;;8.52;1.63;;;;;;;22.89;46.33;100313.78;5067283;27;97953;-79
2022/06/09 01:51:12;;;;;;;3.72;1.65;;;;;;;23.25;45.60;100318.41;5073073;27;98879;-78
2022/06/09 01:53:45;;;;;;;3.90;1.83;;;;;;;23.28;45.52;100319.97;5068238;27;97026;-78
2022/06/09 01:56:16;;;;;;;2.90;1.52;;;;;;;23.32;45.57;100321.34;5074695;27;98591;-77
2022/06/09 01:58:48;;;;;;;4.25;1.45;;;;;;;23.51;44.96;100317.78;5069392;27;97925;-78
2022/06/09 02:01:20;;;;;;;2.92;1.63;;;;;;;23.15;45.07;100314.88;5069765;27;98918;-78
2022/06/09 02:03:49;;;;;;;5.93;1.63;;;;;;;22.96;45.82;100315.78;5065578;27;97592;-78
2022/06/09 02:06:17;;;;;;;2.47;1.58;;;;;;;22.75;46.16;100330.38;5075573;27;96808;-80
2022/06/09 02:08:44;;;;;;;2.08;1.50;;;;;;;23.16;45.44;100321.97;5074100;27;99005;-81
2022/06/09 02:11:12;;;;;;;5.47;2.22;;;;;;;22.86;46.10;100324.84;5073059;27;99041;-78
2022/06/09 02:13:43;;;;;;;3.10;1.48;;;;;;;22.47;46.76;100327.50;5075664;27;96758;-80
2022/06/09 02:16:14;;;;;;;2.58;1.65;;;;;;;22.95;45.57;100324.00;5064989;27;96924;-80
2022/06/09 02:18:45;;;;;;;1.60;1.50;;;;;;;23.28;44.84;100323.50;5078089;27;98843;-81
2022/06/09 02:21:14;;;;;;;3.60;1.63;;;;;;;23.37;44.54;100327.16;5070962;27;98448;-80
2022/06/09 02:23:40;;;;;;;2.15;1.58;;;;;;;23.24;44.54;100329.31;5075378;27;96855;-81
2022/06/09 02:26:07;;;;;;;4.85;1.60;;;;;;;22.88;45.29;100339.03;5068777;27;96867;-80
2022/06/09 02:28:34;;;;;;;1.85;1.50;;;;;;;22.67;45.78;100333.75;5068361;27;99264;-80
2022/06/09 02:31:02;;;;;;;1.45;1.30;;;;;;;22.67;45.81;100340.00;5073460;27;101515;-81
2022/06/09 02:33:29;;;;;;;3.15;1.60;;;;;;;22.74;45.79;100336.75;5067921;27;96870;-80
2022/06/09 02:35:56;;;;;;;3.20;1.60;;;;;;;23.07;45.16;100340.84;5076565;27;97088;-82
2022/06/09 02:38:23;;;;;;;5.07;1.70;;;;;;;23.33;44.18;100336.53;5074128;27;101629;-81
2022/06/09 02:40:51;;;;;;;3.58;1.80;;;;;;;22.80;45.55;100347.81;5074336;27;99230;-80
2022/06/09 02:43:18;;;;;;;1.58;1.48;;;;;;;22.90;45.25;100347.81;5079667;27;97154;-80
2022/06/09 02:45:45;;;;;;;4.28;1.77;;;;;;;23.03;44.99;100345.69;5075657;27;96792;-80
2022/06/09 02:48:12;;;;;;;2.67;1.40;;;;;;;23.22;44.30;100345.66;5071749;27;97934;-80
2022/06/09 02:50:39;;;;;;;3.58;1.52;;;;;;;22.95;44.98;100353.63;5077249;27;98704;-80
2022/06/09 02:53:07;;;;;;;3.28;1.58;;;;;;;22.90;45.24;100353.22;5077909;27;97316;-79
2022/06/09 02:55:34;;;;;;;2.00;1.52;;;;;;;22.90;45.19;100359.47;5076409;27;97965;-80
2022/06/09 02:58:01;;;;;;;3.53;1.52;;;;;;;22.80;45.39;100352.34;5072761;27;98229;-80
2022/06/09 03:00:28;;;;;;;3.58;1.60;;;;;;;22.94;45.09;100360.00;5076378;27;98880;-81
2022/06/09 03:02:56;;;;;;;2.03;1.60;;;;;;;22.57;45.88;100363.38;5078058;27;96832;-80
2022/06/09 03:05:23;;;;;;;2.10;1.67;;;;;;;22.44;45.96;100365.50;5078647;27;96847;-80
2022/06/09 03:07:50;;;;;;;3.50;1.70;;;;;;;22.57;45.79;100366.06;5071527;27;101777;-80
2022/06/09 03:10:18;;;;;;;3.63;1.50;;;;;;;22.58;46.16;100367.75;5072937;27;98995;-79
2022/06/09 03:12:45;;;;;;;2.33;1.60;;;;;;;22.69;45.60;100371.31;5062823;27;97339;-80
2022/06/09 03:15:13;;;;;;;3.40;1.50;;;;;;;22.98;45.00;100366.78;5073759;27;98473;-78
2022/06/09 03:17:39;;;;;;;2.45;1.48;;;;;;;23.08;44.67;100375.75;5075248;27;98295;-79
2022/06/09 03:20:08;;;;;;;4.80;2.00;;;;;;;22.57;45.63;100371.47;5073247;27;98742;-78
2022/06/09 03:22:35;;;;;;;2.97;1.45;;;;;;;22.64;45.57;100364.50;5073274;27;96747;-78
2022/06/09 03:25:01;;;;;;;2.63;1.63;;;;;;;23.06;44.28;100372.31;5074838;27;97002;-79
2022/06/09 03:27:29;;;;;;;2.53;1.38;;;;;;;22.72;45.36;100371.03;5075178;27;97725;-77
2022/06/09 03:29:56;;;;;;;2.58;1.60;;;;;;;22.69;45.27;100374.00;5072042;27;98967;-77
2022/06/09 03:32:23;;;;;;;4.05;1.77;;;;;;;22.99;44.57;100368.50;5074353;27;96834;-79
2022/06/09 03:34:49;;;;;;;5.97;1.67;;;;;;;22.63;45.29;100381.66;5071550;27;96788;-78
2022/06/09 03:37:16;;;;;;;3.10;1.65;;;;;;;22.54;45.78;100369.03;5076564;27;99017;-78
2022/06/09 03:39:43;;;;;;;7.78;1.48;;;;;;;22.87;44.63;100389.34;5075133;27;98551;-76
2022/06/09 03:42:09;;;;;;;3.13;1.70;;;;;;;22.67;44.93;100388.47;5077094;27;96884;-78
2022/06/09 03:44:38;;;;;;;2.50;1.52;;;;;;;22.43;45.77;100384.47;5070576;27;97236;-78
2022/06/09 03:47:05;;;;;;;4.03;1.45;;;;;;;22.53;45.76;100388.00;5072035;27;99393;-79
2022/06/09 03:49:31;;;;;;;3.53;1.55;;;;;;;22.52;45.58;100397.94;5073716;27;99187;-79
2022/06/09 03:51:57;;;;;;;3.10;1.67;;;;;;;22.37;45.67;100391.25;5076328;27;96775;-78
2022/06/09 03:54:24;;;;;;;3.67;1.65;;;;;;;22.33;45.91;100389.81;5080735;27;96890;-78
2022/06/09 03:56:51;;;;;;;4.05;2.22;;;;;;;22.52;45.68;100395.22;5072764;27;100020;-78
2022/06/09 03:59:18;;;;;;;3.33;1.75;;;;;;;22.66;45.26;100383.22;5071663;27;99467;-78
2022/06/09 04:01:46;;;;;;;2.92;1.65;;;;;;;22.79;44.99;100393.75;5075732;27;96875;-79
2022/06/09 04:04:12;;;;;;;3.78;1.63;;;;;;;22.63;45.19;100400.50;5072235;27;97301;-79
2022/06/09 04:06:39;;;;;;;2.88;1.40;;;;;;;23.03;44.43;100403.13;5068574;27;99228;-79
2022/06/09 04:09:06;;;;;;;3.40;1.58;;;;;;;23.18;43.91;100408.91;5067692;27;98223;-81
2022/06/09 04:11:33;;;;;;;4.35;1.38;;;;;;;22.93;44.52;100402.25;5069339;27;96951;-80
2022/06/09 04:14:00;;;;;;;3.58;1.40;;;;;;;23.09;44.52;100404.41;5076169;27;97005;-81
2022/06/09 04:16:29;;;;;;;4.18;1.60;;;;;;;23.39;43.66;100406.91;5074200;27;97682;-79
2022/06/09 04:18:59;;;;;;;2.40;1.60;;;;;;;23.17;44.26;100409.06;5074887;27;98791;-82
2022/06/09 04:21:28;;;;;;;4.20;1.60;;;;;;;23.29;44.00;100402.53;5065668;27;96804;-82
2022/06/09 04:23:55;;;;;;;3.83;1.30;;;;;;;23.29;43.89;100410.63;5079749;27;97977;-82
2022/06/09 04:26:28;;;;;;;4.35;1.60;;;;;;;23.34;43.78;100406.50;5070344;27;101494;-82
2022/06/09 04:28:54;;;;;;;3.13;1.70;;;;;;;22.95;44.55;100410.22;5080518;27;99367;-82
2022/06/09 04:31:22;;;;;;;4.68;1.95;;;;;;;23.18;44.20;100417.00;5071077;27;96782;-82
2022/06/09 04:33:48;;;;;;;2.97;2.00;;;;;;;23.23;44.18;100421.97;5070331;27;96892;-82
2022/06/09 04:36:18;;;;;;;3.25;1.55;;;;;;;23.49;43.81;100419.56;5076780;27;98930;-82
2022/06/09 04:38:44;;;;;;;2.20;1.40;;;;;;;23.76;43.24;100417.78;5070676;27;98898;-83
2022/06/09 04:41:12;;;;;;;4.18;1.85;;;;;;;24.12;42.37;100420.63;5079505;27;96824;-81
2022/06/09 04:43:41;;;;;;;6.40;1.50;;;;;;;23.94;42.50;100420.56;5081524;27;97014;-82
2022/06/09 04:46:09;;;;;;;2.63;1.70;;;;;;;24.17;42.26;100421.03;5075071;27;97804;-81
2022/06/09 04:48:37;;;;;;;4.70;1.42;;;;;;;24.60;41.44;100417.69;5076017;27;97695;-81
2022/06/09 04:51:04;;;;;;;2.60;1.35;;;;;;;24.32;41.91;100424.13;5076188;27;96846;-78
2022/06/09 04:53:33;;;;;;;7.35;2.97;;;;;;;24.16;41.69;100422.88;5073333;27;96902;-80
2022/06/09 04:55:59;;;;;;;5.45;1.40;;;;;;;24.87;40.46;100433.03;5076498;27;98818;-78
2022/06/09 04:58:26;;;;;;;1.85;1.40;;;;;;;27.21;36.44;100430.81;5070832;27;99100;-81
2022/06/09 05:00:53;;;;;;;2.92;1.10;;;;;;;28.85;33.26;100431.09;5066252;27;96795;-79
2022/06/09 05:03:20;;;;;;;4.53;1.50;;;;;;;30.29;30.23;100441.88;5072349;27;96957;-78
2022/06/09 05:05:48;;;;;;;12.90;1.95;;;;;;;31.42;28.35;100442.16;5067442;27;102035;-79
2022/06/09 05:08:16;;;;;;;4.05;1.52;;;;;;;29.28;31.67;100445.03;5065921;27;98944;-78
2022/06/09 05:10:45;;;;;;;3.67;1.33;;;;;;;27.82;33.73;100445.72;5072304;27;96802;-79
2022/06/09 05:13:13;;;;;;;2.25;0.95;;;;;;;27.89;33.86;100444.03;5072115;27;96912;-80
2022/06/09 05:15:49;;;;;;;8.50;1.55;;;;;;;26.93;35.47;100445.69;5062297;27;99176;-79
2022/06/09 05:18:16;;;;;;;2.25;1.02;;;;;;;26.09;37.20;100454.66;5066985;27;98951;-79
2022/06/09 05:20:43;;;;;;;3.25;1.10;;;;;;;25.87;37.71;100454.34;5069100;27;97363;-79
2022/06/09 05:23:09;;;;;;;37.53;2.30;;;;;;;24.70;39.65;100461.69;5067603;27;97729;-79
2022/06/09 05:25:36;;;;;;;1.65;1.15;;;;;;;24.29;40.78;100463.06;5070645;27;99209;-79
2022/06/09 05:28:05;;;;;;;3.60;1.17;;;;;;;24.37;40.73;100462.31;5067178;27;98763;-82
2022/06/09 05:30:31;;;;;;;2.78;1.17;;;;;;;24.16;41.92;100467.91;5070160;27;97252;-82
2022/06/09 05:32:57;;;;;;;3.03;1.23;;;;;;;23.85;42.22;100464.59;5077313;27;97006;-82
2022/06/09 05:35:24;;;;;;;2.95;1.20;;;;;;;23.69;42.95;100480.56;5081604;27;100444;-82
2022/06/09 05:46:07;;;;;;;4.57;1.25;;;;;;;24.16;42.25;100490.34;5081549;27;97147;-82
2022/06/09 05:48:33;;;;;;;6.60;1.15;;;;;;;23.67;43.52;100499.59;5078877;27;100975;-82
2022/06/09 05:51:02;;;;;;;3.28;0.98;;;;;;;23.73;43.59;100492.75;5077312;27;97607;-82
2022/06/09 05:53:45;;;;;;;5.10;1.20;;;;;;;23.99;43.09;100499.22;5076543;27;96822;-82
2022/06/09 05:56:13;;;;;;;5.18;1.20;;;;;;;23.95;42.82;100500.53;5077464;27;100080;-81
2022/06/09 05:58:40;;;;;;;5.30;1.40;;;;;;;24.23;42.20;100496.91;5077648;27;98717;-82
2022/06/09 06:01:09;;;;;;;4.55;1.02;;;;;;;23.87;42.98;100507.66;5075689;27;96954;-82
2022/06/09 06:03:37;;;;;;;1.67;0.90;;;;;;;23.94;42.85;100506.06;5074488;27;97081;-82
2022/06/09 06:08:49;;;;;;;28.83;1.77;;;;;;;23.03;44.87;100520.84;5077298;27;97349;-79
2022/06/09 06:11:16;;;;;;;3.05;1.13;;;;;;;23.85;43.34;100526.66;5073609;27;98016;-79
2022/06/09 06:13:44;;;;;;;1.50;0.90;;;;;;;24.09;42.64;100521.63;5075057;27;96854;-81
2022/06/09 06:16:10;;;;;;;5.68;1.00;;;;;;;23.44;43.93;100525.94;5078087;27;100194;-79
2022/06/09 06:18:37;;;;;;;6.05;1.35;;;;;;;23.79;43.75;100524.56;5073263;27;98914;-78
2022/06/09 06:21:04;;;;;;;2.00;1.10;;;;;;;23.82;43.63;100530.53;5067810;27;97985;-78
2022/06/09 06:23:30;;;;;;;1.42;0.90;;;;;;;24.40;42.53;100526.84;5073566;27;96823;-77
2022/06/09 06:25:58;;;;;;;3.13;0.80;;;;;;;24.41;42.13;100525.84;5069283;27;99175;-78
2022/06/09 06:28:25;;;;;;;5.95;1.42;;;;;;;23.99;43.09;100530.75;5069222;27;99066;-78
2022/06/09 06:30:54;;;;;;;4.78;0.93;;;;;;;24.47;42.33;100534.19;5067902;27;96954;-79
2022/06/09 06:33:20;;;;;;;18.13;1.83;;;;;;;23.87;43.02;100540.88;5068451;27;96990;-78
2022/06/09 06:35:47;;;;;;;2.58;0.75;;;;;;;24.41;42.37;100544.75;5065584;27;99001;-79
2022/06/09 06:38:15;;;;;;;1.95;0.80;;;;;;;24.33;42.48;100553.59;5064973;27;99218;-78
2022/06/09 06:40:41;;;;;;;4.10;1.40;;;;;;;24.21;42.70;100550.22;5070102;27;98861;-79
2022/06/09 06:43:08;;;;;;;4.00;1.02;;;;;;;24.19;43.13;100540.56;5071911;27;96839;-78
2022/06/09 06:45:34;;;;;;;5.05;1.30;;;;;;;24.56;42.37;100549.50;5072530;27;98975;-79
2022/06/09 06:48:02;;;;;;;4.20;1.27;;;;;;;25.15;40.78;100552.75;5066599;27;98770;-79
2022/06/09 06:50:28;;;;;;;4.00;0.98;;;;;;;24.74;41.51;100554.97;5069564;27;96830;-79
2022/06/09 06:52:54;;;;;;;4.07;1.40;;;;;;;24.04;42.90;100568.97;5076158;27;97985;-80
2022/06/09 06:55:23;;;;;;;2.28;1.15;;;;;;;23.05;45.52;100554.72;5079126;27;98915;-78
2022/06/09 06:57:50;;;;;;;5.22;1.30;;;;;;;24.59;42.48;100562.72;5071412;27;96783;-77
2022/06/09 07:00:19;;;;;;;2.22;1.15;;;;;;;25.05;41.56;100560.94;5074753;27;96948;-79
2022/06/09 07:02:46;;;;;;;3.10;1.10;;;;;;;25.36;40.88;100564.16;5070797;27;96775;-78
2022/06/09 07:05:15;;;;;;;3.53;1.33;;;;;;;25.75;39.99;100568.28;5063223;27;99268;-78
2022/06/09 07:07:41;;;;;;;2.75;1.13;;;;;;;25.99;39.40;100570.31;5065218;27;99125;-79
2022/06/09 07:10:09;;;;;;;6.32;1.33;;;;;;;26.09;39.15;100570.22;5065134;27;97534;-79
2022/06/09 07:12:36;;;;;;;9.43;1.70;;;;;;;24.29;42.72;100581.00;5067752;27;96865;-79
2022/06/09 07:15:04;;;;;;;2.33;1.10;;;;;;;25.13;41.31;100581.81;5064950;27;99275;-78
2022/06/09 07:17:30;;;;;;;5.03;1.52;;;;;;;24.97;41.86;100580.63;5068612;27;99819;-79
2022/06/09 07:19:56;;;;;;;3.83;1.42;;;;;;;25.19;41.27;100582.06;5074803;27;96817;-79
2022/06/09 07:22:25;;;;;;;7.22;1.80;;;;;;;24.88;41.96;100588.72;5069263;27;97018;-78
2022/06/09 07:24:55;;;;;;;6.43;1.30;;;;;;;24.70;42.32;100591.38;5078445;27;99031;-78
2022/06/09 07:27:21;;;;;;;7.10;1.65;;;;;;;24.61;42.57;100589.59;5080984;27;99935;-79
2022/06/09 07:29:47;;;;;;;5.38;1.52;;;;;;;24.28;43.61;100596.38;5065582;27;96743;-79
2022/06/09 07:32:14;;;;;;;3.22;1.60;;;;;;;24.58;42.81;100593.44;5078504;27;96868;-78
2022/06/09 07:34:40;;;;;;;5.93;1.67;;;;;;;24.87;42.63;100605.97;5077552;27;102347;-78
2022/06/09 07:37:07;;;;;;;5.53;1.30;;;;;;;24.47;43.41;100604.44;5076196;27;97569;-77
2022/06/09 07:39:36;;;;;;;5.10;1.48;;;;;;;24.19;44.04;100611.59;5077298;27;96799;-80
2022/06/09 07:42:03;;;;;;;7.55;1.98;;;;;;;23.59;45.30;100618.13;5073318;27;97026;-79
2022/06/09 07:44:29;;;;;;;6.18;1.88;;;;;;;23.31;46.45;100614.34;5076267;27;100615;-78
2022/06/09 07:46:56;;;;;;;6.85;1.65;;;;;;;23.67;45.65;100622.81;5076124;27;97730;-77
2022/06/09 07:49:22;;;;;;;6.70;2.05;;;;;;;23.61;46.32;100626.06;5070908;27;96773;-81
2022/06/09 07:51:49;;;;;;;5.60;1.98;;;;;;;23.20;47.41;100627.97;5071699;27;97016;-82
2022/06/09 07:54:15;;;;;;;6.68;1.73;;;;;;;23.07;47.65;100627.34;5074987;27;99085;-80
2022/06/09 07:56:43;;;;;;;6.20;2.25;;;;;;;22.87;48.18;100633.66;5077577;27;97799;-82
2022/06/09 07:59:10;;;;;;;2.65;1.73;;;;;;;23.38;46.83;100631.69;5071687;27;97703;-80
2022/06/09 08:01:37;;;;;;;8.25;1.90;;;;;;;23.24;47.37;100634.75;5072844;27;96815;-81
2022/06/09 08:04:04;;;;;;;3.55;1.52;;;;;;;23.39;47.05;100644.16;5064094;27;101512;-80
2022/06/09 08:06:30;;;;;;;8.77;1.83;;;;;;;23.65;46.18;100652.63;5070949;27;98812;-80
2022/06/09 08:08:59;;;;;;;5.65;1.73;;;;;;;23.69;45.89;100664.00;5072298;27;96764;-81
2022/06/09 08:11:27;;;;;;;6.07;1.50;;;;;;;23.53;46.35;100659.13;5072948;27;98613;-80
2022/06/09 08:13:56;;;;;;;2.67;1.48;;;;;;;23.68;45.75;100656.88;5070164;27;99236;-81
2022/06/09 08:16:23;;;;;;;3.53;1.40;;;;;;;23.14;47.04;100660.84;5073781;27;97919;-82
2022/06/09 08:18:50;;;;;;;3.83;1.50;;;;;;;23.05;47.42;100664.34;5072440;27;96885;-81
2022/06/09 08:21:16;;;;;;;5.82;1.90;;;;;;;23.20;47.51;100664.84;5076200;27;96951;-81
2022/06/09 08:23:43;;;;;;;3.90;1.85;;;;;;;23.28;47.29;100665.88;5073479;27;98863;-82
2022/06/09 08:26:09;;;;;;;2.35;1.60;;;;;;;23.59;46.53;100661.28;5068161;27;98724;-81
2022/06/09 08:28:36;;;;;;;3.75;1.73;;;;;;;23.45;47.12;100667.88;5071822;27;96790;-80
2022/06/09 08:31:03;;;;;;;5.25;2.55;;;;;;;23.82;46.13;100669.97;5073583;27;96780;-80
2022/06/09 08:33:30;;;;;;;7.57;1.92;;;;;;;23.28;47.68;100675.78;5071024;27;98214;-81
2022/06/09 08:35:56;;;;;;;7.55;2.13;;;;;;;23.26;47.74;100670.53;5063165;27;98849;-81
2022/06/09 08:38:23;;;;;;;5.20;1.48;;;;;;;22.88;49.09;100676.63;5070891;27;97177;-81
2022/06/09 08:40:56;;;;;;;2.60;1.83;;;;;;;22.73;49.56;100675.28;5072745;27;96890;-80
2022/06/09 08:43:34;;;;;;;3.00;1.50;;;;;;;22.98;49.30;100682.06;5079502;27;102047;-82
2022/06/09 08:46:08;;;;;;;4.45;1.70;;;;;;;23.41;49.00;100693.44;5080821;27;97470;-82
2022/06/09 08:48:39;;;;;;;4.45;2.05;;;;;;;23.56;48.93;100690.38;5076209;27;96825;-80
2022/06/09 08:51:09;;;;;;;7.28;1.77;;;;;;;23.50;48.31;100697.16;5078278;27;96819;-80
2022/06/09 08:53:40;;;;;;;4.43;1.83;;;;;;;22.99;49.50;100702.63;5078829;27;98996;-82
2022/06/09 08:56:26;;;;;;;6.35;2.13;;;;;;;23.74;48.19;100697.66;5077699;27;96958;-80
2022/06/09 08:58:56;;;;;;;5.33;1.63;;;;;;;24.09;47.48;100705.19;5074206;27;96870;-82
2022/06/09 09:01:36;;;;;;;4.75;1.75;;;;;;;23.47;48.22;100710.94;5068552;27;96758;-82
2022/06/09 09:04:13;;;;;;;2.97;1.80;;;;;;;23.53;48.20;100709.53;5068918;27;98989;-81
2022/06/09 09:06:44;;;;;;;4.80;2.10;;;;;;;22.62;50.64;100719.28;5067567;27;99130;-80
2022/06/09 09:09:15;;;;;;;4.35;1.63;;;;;;;23.17;49.10;100719.03;5070823;27;97026;-80
2022/06/09 09:11:53;;;;;;;3.10;1.70;;;;;;;24.00;47.52;100706.06;5075690;27;97343;-80
2022/06/09 09:14:25;;;;;;;4.40;2.17;;;;;;;23.68;47.55;100721.63;5076881;27;99498;-83
2022/06/09 09:17:03;;;;;;;8.40;2.00;;;;;;;23.61;47.83;100723.19;5080308;27;98825;-80
2022/06/09 09:19:44;;;;;;;3.00;1.70;;;;;;;24.33;45.73;100721.00;5075414;27;97120;-80
2022/06/09 09:22:19;;;;;;;2.90;1.85;;;;;;;24.49;45.65;100728.50;5076386;27;96804;-80
2022/06/09 09:25:00;;;;;;;5.13;1.70;;;;;;;24.55;45.14;100727.91;5074746;27;99180;-81
2022/06/09 09:27:35;;;;;;;5.20;1.90;;;;;;;24.57;45.50;100731.34;5073111;27;98115;-80
2022/06/09 09:30:11;;;;;;;3.05;2.03;;;;;;;24.74;44.94;100727.06;5070801;27;96773;-80
2022/06/09 09:32:42;;;;;;;8.63;1.70;;;;;;;25.07;44.17;100731.97;5074309;27;97099;-81
2022/06/09 09:35:18;;;;;;;5.57;1.70;;;;;;;25.09;45.01;100731.81;5067869;27;99120;-80
2022/06/09 09:37:48;;;;;;;6.20;1.80;;;;;;;25.27;43.57;100720.06;5071242;27;98635;-81
2022/06/09 09:40:20;;;;;;;4.78;1.83;;;;;;;24.65;44.74;100726.06;5066580;27;97230;-80
2022/06/09 09:42:48;;;;;;;11.63;2.40;;;;;;;25.58;43.03;100726.06;5066501;27;97067;-79
2022/06/09 09:45:18;;;;;;;7.57;2.70;;;;;;;24.91;43.92;100723.63;5074750;27;99007;-80
2022/06/09 09:47:49;;;;;;;4.55;1.70;;;;;;;25.11;44.15;100732.50;5066029;27;99073;-82
2022/06/09 09:50:27;;;;;;;2.10;1.85;;;;;;;24.72;44.04;100726.34;5072872;27;97010;-80
2022/06/09 09:53:04;;;;;;;2.97;1.90;;;;;;;24.82;43.81;100732.56;5066758;27;96807;-81
2022/06/09 09:55:41;;;;;;;7.18;2.03;;;;;;;24.85;43.74;100737.69;5061324;27;99003;-80
2022/06/09 09:58:17;;;;;;;6.13;2.10;;;;;;;24.39;44.61;100742.03;5070429;27;99174;-80
2022/06/09 10:00:45;;;;;;;5.00;2.07;;;;;;;24.96;43.48;100743.78;5080466;27;96923;-81
2022/06/09 10:08:52;;;;;;;6.50;1.98;;;;;;;24.92;43.79;100764.03;5067462;27;97160;-81
2022/06/09 10:14:36;;;;;;;4.05;1.90;;;;;;;24.81;43.47;100766.00;5007951;28;98323;-79
2022/06/09 10:17:05;;;;;;;6.15;2.50;;;;;;;24.75;43.63;100761.16;5072160;27;97866;-79
2022/06/09 10:19:34;;;;;;;4.93;1.88;;;;;;;24.67;43.40;100775.41;5077094;27;99413;-81
2022/06/09 10:22:04;;;;;;;6.53;2.50;;;;;;;24.84;42.81;100779.22;5078598;27;96806;-81
2022/06/09 10:24:46;;;;;;;4.50;2.28;;;;;;;25.29;42.04;100768.59;5079959;27;96838;-81
2022/06/09 10:27:16;;;;;;;4.65;1.83;;;;;;;25.67;41.27;100776.56;5073777;27;99126;-81
2022/06/09 10:29:50;;;;;;;5.40;2.40;;;;;;;24.50;43.30;100778.81;5077713;27;99653;-81
2022/06/09 10:32:23;;;;;;;5.53;2.47;;;;;;;24.48;43.60;100781.66;5080816;27;96838;-80
2022/06/09 10:34:56;;;;;;;6.32;2.45;;;;;;;24.77;42.96;100792.47;5075599;27;98366;-79
2022/06/09 10:37:29;;;;;;;6.53;2.63;;;;;;;25.00;42.63;100791.19;5076757;27;100584;-80
2022/06/09 10:40:01;;;;;;;3.60;2.58;;;;;;;24.86;42.50;100790.75;5084945;27;101456;-80
2022/06/09 10:42:32;;;;;;;9.48;2.80;;;;;;;25.26;41.83;100790.53;5086457;27;96779;-79
2022/06/09 10:45:14;;;;;;;5.85;2.90;;;;;;;25.24;41.87;100792.53;5093513;27;96722;-80
2022/06/09 10:56:30;;;;;;;8.23;2.97;;;;;;;25.05;41.74;100792.59;5005673;28;97127;-81
2022/06/09 10:59:01;;;;;;;6.35;2.50;;;;;;;25.27;41.11;100805.75;5072919;27;99989;-82
2022/06/09 11:01:32;;;;;;;9.10;3.33;;;;;;;23.77;44.38;100801.72;5079868;27;98928;-81
2022/06/09 11:04:01;;;;;;;6.82;2.72;;;;;;;24.81;42.58;100810.06;5076520;27;96699;-80
2022/06/09 11:06:56;;;;;;;7.32;2.53;;;;;;;25.25;41.61;100808.59;5076899;27;97367;-82
2022/06/09 11:09:32;;;;;;;5.43;2.40;;;;;;;25.20;41.50;100810.06;5047849;27;99648;-79
2022/06/09 11:12:18;;;;;;;5.28;2.88;;;;;;;25.82;40.39;100814.78;5084279;27;97516;-81
2022/06/09 11:15:00;;;;;;;4.85;2.63;;;;;;;25.88;39.63;100806.06;5076883;27;96879;-81
2022/06/09 11:17:41;;;;;;;4.25;2.47;;;;;;;26.18;39.55;100810.31;5077659;27;96828;-81
2022/06/09 11:20:20;;;;;;;8.43;2.90;;;;;;;25.56;40.30;100814.59;5077730;27;99475;-81
2022/06/09 11:22:57;;;;;;;6.40;2.97;;;;;;;25.36;41.30;100812.97;5080427;27;98757;-81
2022/06/09 11:25:37;;;;;;;3.60;2.47;;;;;;;25.25;41.63;100807.75;5078510;27;96639;-80
2022/06/09 11:28:19;;;;;;;7.75;3.60;;;;;;;25.39;41.61;100815.41;5084219;27;97068;-82
2022/06/09 11:31:04;;;;;;;6.47;2.53;;;;;;;25.52;41.12;100815.06;5082348;27;97619;-80
2022/06/09 11:33:55;;;;;;;7.68;2.58;;;;;;;25.52;41.09;100815.91;5085891;27;97689;-81
2022/06/09 11:36:27;;;;;;;6.72;3.30;;;;;;;25.24;41.84;100814.16;5074210;27;97105;-81
2022/06/09 11:39:06;;;;;;;4.50;2.78;;;;;;;25.55;41.34;100815.59;5081394;27;96722;-82
2022/06/09 11:41:49;;;;;;;7.40;3.50;;;;;;;25.19;41.74;100811.03;5083577;27;99722;-83
2022/06/09 11:44:25;;;;;;;5.72;3.00;;;;;;;25.64;41.22;100813.91;5083852;27;97647;-83
2022/06/09 11:46:54;;;;;;;18.55;3.55;;;;;;;25.60;41.26;100812.50;5079756;27;96688;-82
2022/06/09 11:49:27;;;;;;;4.90;3.28;;;;;;;24.49;42.93;100813.09;5081409;27;96962;-81
2022/06/09 11:51:54;;;;;;;7.72;3.53;;;;;;;25.00;41.91;100820.91;5079940;27;97660;-80
2022/06/09 11:54:39;;;;;;;6.05;2.90;;;;;;;25.49;40.31;100809.94;5075965;27;97768;-81
2022/06/09 11:57:46;;;;;;;6.38;3.00;;;;;;;25.62;40.35;100815.88;5076680;27;97164;-82
2022/06/09 12:00:40;;;;;;;17.65;3.38;;;;;;;25.87;40.61;100820.59;4998452;28;98979;-82
2022/06/09 12:03:36;;;;;;;11.75;3.30;;;;;;;25.76;39.54;100813.53;5053111;27;101940;-80
2022/06/09 12:06:14;;;;;;;5.93;2.53;;;;;;;25.74;39.16;100812.84;5091038;27;101298;-81
2022/06/09 12:08:53;;;;;;;6.70;2.78;;;;;;;25.92;39.22;100822.88;5081602;27;97222;-80